Fossum, Minnesota
Current Conditions -  °F | °C
As of 4:15 PM on Saturday 25 Oct 2014 (Local Time) from K3N8 Reporting Station
Clear Clear  
Wind Chill: 58°   Ceiling: Unl
Heat Index: 58°   Visibility: 10mi
Dew Point: 24°   Wind: 14mph
Humidity: 28%   Direction: 310°NW
Pressure: 30.05"   Gusts: 25mph
Location:  47.2382°N, 96.2513°W
Report Text: K3N8 252115Z AUTO 31012G22KT 10SM CLR 14/M04 A3005 RMK AO2 T01421042
Loading
Personal Weather Stations






























Interactive Weather Map
Tropical Storm Tracking
New forecast layout! Learn more

10-Day Weather Forecast

Advertisements
Track Severe Weather on mobile